createdAt,value
2023-05-12T00:02:14.982Z,41.61
2023-05-12T00:04:42.411Z,42.06
2023-05-12T00:07:10.020Z,42.12
2023-05-12T00:09:37.250Z,42.32
2023-05-12T00:12:05.127Z,42.29
2023-05-12T00:14:32.291Z,42.18
2023-05-12T00:16:59.829Z,42.46
2023-05-12T00:19:27.391Z,42.71
2023-05-12T00:21:54.924Z,42.64
2023-05-12T00:24:22.247Z,42.67
2023-05-12T00:26:49.735Z,43.28
2023-05-12T00:29:16.946Z,42.76
2023-05-12T00:31:44.490Z,42.66
2023-05-12T00:34:11.802Z,43.82
2023-05-12T00:36:39.915Z,43.48
2023-05-12T00:39:07.278Z,44.10
2023-05-12T00:41:34.775Z,46.27
2023-05-12T00:44:02.055Z,45.52
2023-05-12T00:46:30.303Z,44.87
2023-05-12T00:48:58.506Z,46.63
2023-05-12T00:51:26.656Z,44.75
2023-05-12T00:53:55.541Z,44.91
2023-05-12T00:56:23.653Z,43.68
2023-05-12T00:58:51.389Z,43.70
2023-05-12T01:01:19.364Z,43.68
2023-05-12T01:03:49.857Z,43.41
2023-05-12T01:06:37.144Z,43.68
2023-05-12T01:09:05.921Z,43.48
2023-05-12T01:11:33.453Z,43.56
2023-05-12T01:14:00.789Z,43.27
2023-05-12T01:16:36.815Z,43.49
2023-05-12T01:19:10.847Z,43.59
2023-05-12T01:21:39.031Z,43.86
2023-05-12T01:24:08.848Z,43.65
2023-05-12T01:26:37.906Z,43.56
2023-05-12T01:29:06.785Z,43.65
2023-05-12T01:31:34.589Z,43.90
2023-05-12T01:34:02.001Z,43.87
2023-05-12T01:36:31.613Z,43.07
2023-05-12T01:38:59.252Z,43.43
2023-05-12T01:41:26.752Z,43.65
2023-05-12T01:43:54.181Z,43.89
2023-05-12T01:46:21.872Z,43.67
2023-05-12T01:48:49.867Z,43.92
2023-05-12T01:51:17.542Z,44.04
2023-05-12T01:53:45.271Z,44.06
2023-05-12T01:56:13.091Z,44.11
2023-05-12T01:58:40.482Z,45.27
2023-05-12T02:01:08.047Z,44.46
2023-05-12T02:03:35.302Z,44.37
2023-05-12T02:06:02.986Z,45.64
2023-05-12T02:08:30.357Z,45.01
2023-05-12T02:11:08.368Z,44.71
2023-05-12T02:13:35.876Z,45.87
2023-05-12T02:16:04.225Z,45.84
2023-05-12T02:18:31.596Z,45.83
2023-05-12T02:20:59.464Z,45.14
2023-05-12T02:23:26.607Z,45.43
2023-05-12T02:25:54.133Z,45.87
2023-05-12T02:28:21.308Z,45.01
2023-05-12T02:30:50.847Z,45.30
2023-05-12T02:33:19.695Z,46.57
2023-05-12T02:35:48.066Z,45.14
2023-05-12T02:38:15.835Z,47.01
2023-05-12T02:40:43.453Z,46.67
2023-05-12T02:43:11.215Z,45.99
2023-05-12T02:45:39.116Z,45.68
2023-05-12T02:48:06.717Z,45.40
2023-05-12T02:50:34.230Z,45.27
2023-05-12T02:53:01.453Z,45.06
2023-05-12T02:55:30.305Z,44.99
2023-05-12T02:57:57.720Z,45.51
2023-05-12T03:00:25.490Z,45.76
2023-05-12T03:02:53.009Z,45.71
2023-05-12T03:05:20.918Z,45.93
2023-05-12T03:07:49.559Z,45.13
2023-05-12T03:10:18.933Z,45.62
2023-05-12T03:12:47.133Z,44.94
2023-05-12T03:15:14.664Z,44.47
2023-05-12T03:17:42.555Z,44.92
2023-05-12T03:20:10.422Z,44.67
2023-05-12T03:22:37.950Z,45.00
2023-05-12T03:25:06.391Z,43.89
2023-05-12T03:27:33.703Z,43.59
2023-05-12T03:30:01.290Z,43.37
2023-05-12T03:32:29.792Z,42.70
2023-05-12T03:34:57.394Z,42.57
2023-05-12T03:37:24.852Z,42.35
2023-05-12T03:39:56.090Z,39.19
2023-05-12T03:42:24.188Z,36.50
2023-05-12T03:44:52.160Z,34.97
2023-05-12T03:47:19.467Z,34.06
2023-05-12T03:49:47.078Z,35.30
2023-05-12T03:52:14.393Z,36.33
2023-05-12T03:54:41.864Z,34.24
2023-05-12T03:57:09.052Z,35.05
2023-05-12T03:59:36.513Z,36.72
2023-05-12T04:02:04.342Z,34.37
2023-05-12T04:04:32.007Z,32.48
2023-05-12T04:07:00.298Z,33.33
2023-05-12T04:09:28.041Z,32.53
2023-05-12T04:11:55.325Z,32.34
2023-05-12T04:14:31.892Z,30.96
2023-05-12T04:17:02.990Z,28.24
2023-05-12T04:19:30.523Z,29.39
2023-05-12T04:21:57.973Z,31.35
2023-05-12T04:24:25.681Z,32.11
2023-05-12T04:26:52.894Z,30.94
2023-05-12T04:29:20.623Z,30.68
2023-05-12T04:31:48.078Z,34.19
2023-05-12T04:34:15.653Z,35.41
2023-05-12T04:36:42.906Z,37.69
2023-05-12T04:39:10.445Z,37.56
2023-05-12T04:41:37.650Z,37.71
2023-05-12T04:44:05.494Z,36.03
2023-05-12T04:46:33.686Z,33.56
2023-05-12T04:49:01.944Z,34.69
2023-05-12T04:51:29.160Z,35.49
2023-05-12T04:53:56.681Z,35.18
2023-05-12T04:56:23.909Z,36.30
2023-05-12T04:58:51.834Z,35.11
2023-05-12T05:01:19.294Z,32.50
2023-05-12T05:03:48.020Z,31.70
2023-05-12T05:06:15.383Z,30.63
2023-05-12T05:08:42.962Z,27.86
2023-05-12T05:11:10.177Z,29.24
2023-05-12T05:13:38.060Z,31.73
2023-05-12T05:16:06.860Z,29.05
2023-05-12T05:18:34.697Z,25.49
2023-05-12T05:21:02.131Z,20.53
2023-05-12T05:23:29.754Z,19.02
2023-05-12T05:25:56.973Z,20.44
2023-05-12T05:28:24.688Z,18.80
2023-05-12T05:30:51.911Z,17.18
2023-05-12T05:33:19.669Z,17.06
2023-05-12T05:35:48.094Z,26.56
2023-05-12T05:38:15.835Z,22.63
2023-05-12T05:40:52.925Z,27.27
2023-05-12T05:43:21.831Z,22.23
2023-05-12T05:45:50.099Z,19.12
2023-05-12T05:48:18.661Z,18.63
2023-05-12T05:50:47.186Z,22.77
2023-05-12T05:53:15.532Z,20.54
2023-05-12T05:55:43.568Z,22.52
2023-05-12T05:58:11.196Z,19.39
2023-05-12T06:00:38.899Z,16.46
2023-05-12T06:03:06.510Z,19.27
2023-05-12T06:05:34.401Z,17.50
2023-05-12T06:08:01.908Z,18.53
2023-05-12T06:10:29.112Z,18.61
2023-05-12T06:12:56.670Z,16.43
2023-05-12T06:15:23.907Z,18.65
2023-05-12T06:17:51.430Z,15.53
2023-05-12T06:20:18.719Z,15.02
2023-05-12T06:22:46.400Z,16.32
2023-05-12T06:25:13.635Z,14.02
2023-05-12T06:27:41.276Z,16.48
2023-05-12T06:30:09.676Z,17.85
2023-05-12T06:32:37.217Z,17.71
2023-05-12T06:35:06.811Z,17.63
2023-05-12T06:37:34.313Z,16.34
2023-05-12T06:40:01.601Z,13.63
2023-05-12T06:42:29.125Z,16.42
2023-05-12T06:44:56.842Z,14.49
2023-05-12T06:47:24.458Z,22.94
2023-05-12T06:49:51.824Z,18.40
2023-05-12T06:52:20.649Z,15.14
2023-05-12T06:54:47.924Z,14.13
2023-05-12T06:57:15.490Z,12.79
2023-05-12T06:59:42.659Z,15.48
2023-05-12T07:02:10.120Z,16.19
2023-05-12T07:04:37.450Z,20.30
2023-05-12T07:07:05.080Z,23.71
2023-05-12T07:09:32.271Z,17.95
2023-05-12T07:12:00.859Z,15.47
2023-05-12T07:14:28.066Z,16.65
2023-05-12T07:16:55.655Z,21.17
2023-05-12T07:19:22.999Z,17.95
2023-05-12T07:21:50.501Z,19.27
2023-05-12T07:24:17.723Z,18.24
2023-05-12T07:26:45.171Z,18.97
2023-05-12T07:29:13.843Z,21.41
2023-05-12T07:31:41.728Z,19.11
2023-05-12T07:34:08.998Z,18.80
2023-05-12T07:36:36.520Z,16.09
2023-05-12T07:39:03.765Z,23.50
2023-05-12T07:41:32.545Z,20.51
2023-05-12T07:44:02.382Z,20.95
2023-05-12T07:46:30.076Z,19.60
2023-05-12T07:48:57.472Z,22.11
2023-05-12T07:51:25.057Z,20.13
2023-05-12T07:53:52.317Z,20.83
2023-05-12T07:56:19.832Z,20.47
2023-05-12T07:58:47.607Z,21.02
2023-05-12T08:01:15.341Z,21.35
2023-05-12T08:03:42.745Z,20.12
2023-05-12T08:06:10.734Z,19.34
2023-05-12T08:08:38.146Z,18.44
2023-05-12T08:11:05.871Z,19.45
2023-05-12T08:13:33.223Z,20.07
2023-05-12T08:16:00.833Z,19.52
2023-05-12T08:18:28.051Z,20.72
2023-05-12T08:20:55.792Z,18.45
2023-05-12T08:23:23.275Z,18.98
2023-05-12T08:25:50.815Z,23.79
2023-05-12T08:28:18.032Z,24.76
2023-05-12T08:30:45.775Z,22.90
2023-05-12T08:33:13.370Z,24.74
2023-05-12T08:35:41.068Z,24.43
2023-05-12T08:38:08.396Z,24.62
2023-05-12T08:40:46.700Z,24.61
2023-05-12T08:43:25.069Z,21.55
2023-05-12T08:46:00.365Z,26.22
2023-05-12T08:48:29.419Z,23.48
2023-05-12T08:50:58.065Z,21.76
2023-05-12T08:53:27.151Z,21.18
2023-05-12T08:57:10.003Z,21.48
2023-05-12T08:58:45.724Z,22.13
2023-05-12T09:01:15.182Z,22.02
2023-05-12T09:03:42.654Z,23.05
2023-05-12T09:06:11.729Z,23.58
2023-05-12T09:08:39.556Z,22.07
2023-05-12T09:11:09.763Z,21.28
2023-05-12T09:14:03.244Z,24.11
2023-05-12T09:16:35.931Z,24.31
2023-05-12T09:19:06.071Z,23.88
2023-05-12T09:21:34.666Z,23.66
2023-05-12T09:24:07.153Z,22.78
2023-05-12T09:26:47.433Z,20.60
2023-05-12T09:29:24.115Z,19.17
2023-05-12T09:31:59.781Z,22.20
2023-05-12T09:34:41.345Z,22.35
2023-05-12T09:37:09.657Z,23.20
2023-05-12T09:39:37.046Z,21.96
2023-05-12T09:42:10.963Z,21.50
2023-05-12T09:44:39.277Z,21.61
2023-05-12T09:47:08.040Z,20.29
2023-05-12T09:49:35.819Z,21.25
2023-05-12T09:52:05.026Z,21.38
2023-05-12T09:54:33.867Z,18.69
2023-05-12T09:57:04.036Z,19.46
2023-05-12T09:59:33.496Z,22.74
2023-05-12T10:02:05.558Z,21.78
2023-05-12T10:04:41.794Z,22.98
2023-05-12T10:07:12.933Z,22.47
2023-05-12T10:09:42.522Z,22.35
2023-05-12T10:12:10.770Z,24.06
2023-05-12T10:14:38.685Z,23.80
2023-05-12T10:17:07.384Z,23.49
2023-05-12T10:19:36.083Z,22.56
2023-05-12T10:22:05.863Z,22.18
2023-05-12T10:24:33.652Z,22.12
2023-05-12T10:27:03.853Z,21.32
2023-05-12T10:29:33.135Z,23.60
2023-05-12T10:32:04.143Z,24.34
2023-05-12T10:34:35.239Z,24.15
2023-05-12T10:37:08.381Z,23.75
2023-05-12T10:39:35.809Z,22.72
2023-05-12T10:42:08.580Z,21.48
2023-05-12T10:44:37.074Z,22.11
2023-05-12T10:47:16.716Z,22.12
2023-05-12T10:49:43.966Z,23.18
2023-05-12T10:52:13.497Z,23.25
2023-05-12T10:54:44.594Z,23.69
2023-05-12T10:57:20.616Z,24.18
2023-05-12T10:59:56.298Z,22.81
2023-05-12T11:02:29.246Z,22.80
2023-05-12T11:05:02.343Z,22.11
2023-05-12T11:07:33.087Z,24.06
2023-05-12T11:10:03.693Z,24.75
2023-05-12T11:12:35.401Z,24.20
2023-05-12T11:15:04.603Z,23.66
2023-05-12T11:17:33.743Z,24.24
2023-05-12T11:20:01.618Z,24.42
2023-05-12T11:22:29.795Z,24.19
2023-05-12T11:24:57.153Z,23.06
2023-05-12T11:27:24.764Z,23.63
2023-05-12T11:30:00.544Z,22.81
2023-05-12T11:32:29.622Z,22.84
2023-05-12T11:35:10.960Z,22.48
2023-05-12T11:37:40.377Z,21.50
2023-05-12T11:40:19.080Z,21.57
2023-05-12T11:42:51.552Z,22.05
2023-05-12T11:45:23.791Z,21.61
2023-05-12T11:47:52.166Z,21.44
2023-05-12T11:50:24.097Z,21.05
2023-05-12T11:52:52.992Z,21.40
2023-05-12T11:55:24.790Z,21.54
2023-05-12T11:58:00.530Z,21.58
2023-05-12T12:00:33.427Z,21.51
2023-05-12T12:03:11.669Z,21.41
2023-05-12T12:05:43.635Z,21.54
2023-05-12T12:08:16.255Z,21.56
2023-05-12T12:10:46.899Z,21.60
2023-05-12T12:13:22.964Z,22.20
2023-05-12T12:15:51.114Z,21.76
2023-05-12T12:18:22.068Z,21.91
2023-05-12T12:20:49.407Z,21.62
2023-05-12T12:23:16.884Z,22.05
2023-05-12T12:25:44.170Z,22.01
2023-05-12T12:28:12.331Z,21.65
2023-05-12T12:30:39.574Z,22.08
2023-05-12T12:33:07.211Z,22.30
2023-05-12T12:35:34.456Z,21.91
2023-05-12T12:38:01.926Z,22.42
2023-05-12T12:40:29.108Z,22.15
2023-05-12T12:42:57.760Z,21.85
2023-05-12T12:45:25.365Z,22.49
2023-05-12T12:47:54.869Z,22.44
2023-05-12T12:50:23.544Z,21.99
2023-05-12T12:52:52.354Z,22.25
2023-05-12T12:55:20.039Z,21.96
2023-05-12T12:57:47.846Z,22.27
2023-05-12T13:00:15.508Z,22.22
2023-05-12T13:02:43.074Z,22.64
2023-05-12T13:05:10.909Z,22.07
2023-05-12T13:07:38.383Z,22.17
2023-05-12T13:10:05.974Z,21.78
2023-05-12T13:12:33.654Z,21.48
2023-05-12T13:15:01.022Z,22.08
2023-05-12T13:17:29.176Z,21.67
2023-05-12T13:19:56.470Z,22.25
2023-05-12T13:22:25.862Z,22.07
2023-05-12T13:24:53.445Z,21.98
2023-05-12T13:27:21.057Z,22.13
2023-05-12T13:29:48.329Z,22.44
2023-05-12T13:32:16.367Z,22.16
2023-05-12T13:34:43.624Z,22.45
2023-05-12T13:37:11.259Z,22.60
2023-05-12T13:39:38.471Z,22.51
2023-05-12T13:42:06.418Z,22.97
2023-05-12T13:44:33.628Z,22.92
2023-05-12T13:47:01.144Z,22.99
2023-05-12T13:49:28.319Z,22.85
2023-05-12T13:51:55.874Z,22.85
2023-05-12T13:54:24.078Z,23.05
2023-05-12T13:56:51.878Z,22.94
2023-05-12T13:59:19.573Z,22.89
2023-05-12T14:01:47.282Z,22.57
2023-05-12T14:04:14.554Z,22.82
2023-05-12T14:06:42.073Z,22.89
2023-05-12T14:09:09.349Z,22.74
2023-05-12T14:11:37.084Z,26.19
2023-05-12T14:14:06.330Z,28.16
2023-05-12T14:16:34.039Z,29.30
2023-05-12T14:19:01.581Z,30.15
2023-05-12T14:21:29.182Z,29.50
2023-05-12T14:23:56.415Z,29.95
2023-05-12T14:26:25.650Z,29.86
2023-05-12T14:28:53.091Z,30.10
2023-05-12T14:31:20.692Z,30.02
2023-05-12T14:33:47.972Z,29.61
2023-05-12T14:36:15.476Z,29.92
2023-05-12T14:38:42.786Z,29.99
2023-05-12T14:41:11.133Z,29.30
2023-05-12T14:43:38.464Z,29.77
2023-05-12T14:46:06.628Z,29.22
2023-05-12T14:48:33.863Z,29.25
2023-05-12T14:51:03.315Z,30.35
2023-05-12T14:53:31.225Z,30.70
2023-05-12T14:55:58.752Z,31.24
2023-05-12T14:58:26.042Z,31.70
2023-05-12T15:00:53.923Z,31.41
2023-05-12T15:03:21.437Z,31.32
2023-05-12T15:06:04.879Z,32.01
2023-05-12T15:08:33.953Z,32.33
2023-05-12T15:11:01.471Z,31.92
2023-05-12T15:13:28.743Z,32.15
2023-05-12T15:15:57.086Z,32.72
2023-05-12T15:18:24.585Z,32.69
2023-05-12T15:20:52.224Z,33.39
2023-05-12T15:23:19.367Z,33.51
2023-05-12T15:25:46.869Z,33.52
2023-05-12T15:28:14.153Z,33.13
2023-05-12T15:30:41.718Z,34.02
2023-05-12T15:33:09.033Z,33.87
2023-05-12T15:35:36.700Z,34.27
2023-05-12T15:38:04.342Z,34.60
2023-05-12T15:40:31.871Z,34.47
2023-05-12T15:42:59.156Z,34.12
2023-05-12T15:45:26.699Z,34.67
2023-05-12T15:47:54.155Z,36.25
2023-05-12T15:50:23.073Z,35.38
2023-05-12T15:52:50.894Z,35.89
2023-05-12T15:55:18.743Z,36.40
2023-05-12T15:57:46.304Z,35.90
2023-05-12T16:00:14.732Z,35.90
2023-05-12T16:02:42.013Z,35.66
2023-05-12T16:05:09.991Z,36.45
2023-05-12T16:07:37.189Z,35.97
2023-05-12T16:10:05.807Z,37.20
2023-05-12T16:12:33.056Z,37.49
2023-05-12T16:15:00.623Z,37.44
2023-05-12T16:17:28.453Z,37.68
2023-05-12T16:19:57.084Z,37.74
2023-05-12T16:22:24.323Z,38.21
2023-05-12T16:24:53.797Z,38.71
2023-05-12T16:27:21.016Z,39.42
2023-05-12T16:29:49.684Z,39.38
2023-05-12T16:32:17.524Z,39.15
2023-05-12T16:34:45.294Z,40.19
2023-05-12T16:37:12.557Z,40.68
2023-05-12T16:39:40.195Z,40.76
2023-05-12T16:42:07.577Z,40.16
2023-05-12T16:44:35.066Z,40.52
2023-05-12T16:47:02.293Z,40.46
2023-05-12T16:49:30.124Z,40.61
2023-05-12T16:51:57.333Z,40.22
2023-05-12T16:54:24.913Z,40.11
2023-05-12T16:56:52.257Z,40.23
2023-05-12T16:59:21.167Z,41.56
2023-05-12T17:01:48.450Z,40.97
2023-05-12T17:04:16.335Z,40.40
2023-05-12T17:06:43.663Z,40.63
2023-05-12T17:09:11.212Z,40.59
2023-05-12T17:11:38.414Z,40.31
2023-05-12T17:14:05.962Z,40.49
2023-05-12T17:16:33.400Z,40.34
2023-05-12T17:21:31.492Z,40.69
2023-05-12T17:23:58.979Z,41.11
2023-05-12T17:26:27.956Z,40.93
2023-05-12T17:28:56.085Z,41.48
2023-05-12T17:31:23.640Z,41.46
2023-05-12T17:33:51.444Z,41.50
2023-05-12T17:36:18.956Z,41.75
2023-05-12T17:38:46.536Z,42.08
2023-05-12T17:41:13.788Z,42.04
2023-05-12T17:43:41.566Z,42.07
2023-05-12T17:46:09.256Z,42.75
2023-05-12T17:48:38.575Z,43.01
2023-05-12T17:51:06.220Z,43.05
2023-05-12T17:53:34.233Z,43.36
2023-05-12T17:56:01.769Z,43.70
2023-05-12T17:58:29.522Z,43.72
2023-05-12T18:00:56.870Z,44.19
2023-05-12T18:03:24.759Z,45.00
2023-05-12T18:05:54.183Z,45.10
2023-05-12T18:08:21.879Z,45.42
2023-05-12T18:10:49.159Z,45.37
2023-05-12T18:13:17.033Z,45.73
2023-05-12T18:15:44.570Z,45.83
2023-05-12T18:18:12.473Z,46.17
2023-05-12T18:20:39.794Z,46.78
2023-05-12T18:23:07.289Z,46.99
2023-05-12T18:25:34.500Z,47.38
2023-05-12T18:28:03.371Z,47.97
2023-05-12T18:30:31.273Z,48.98
2023-05-12T18:32:58.992Z,49.37
2023-05-12T18:35:27.195Z,49.58
2023-05-12T18:37:54.990Z,50.74
2023-05-12T18:40:22.272Z,51.28
2023-05-12T18:42:51.159Z,51.32
2023-05-12T18:45:19.657Z,51.15
2023-05-12T18:47:47.310Z,52.23
2023-05-12T18:50:14.625Z,52.11
2023-05-12T18:52:42.933Z,53.66
2023-05-12T18:55:10.959Z,53.29
2023-05-12T18:57:38.496Z,53.86
2023-05-12T19:00:06.652Z,54.90
2023-05-12T19:02:34.728Z,54.15
2023-05-12T19:05:02.579Z,54.65
2023-05-12T19:07:30.437Z,56.53
2023-05-12T19:09:58.783Z,56.60
2023-05-12T19:12:26.914Z,57.07
2023-05-12T19:14:54.325Z,57.21
2023-05-12T19:17:22.264Z,57.29
2023-05-12T19:19:50.725Z,57.54
2023-05-12T19:22:18.232Z,57.41
2023-05-12T19:24:45.911Z,58.00
2023-05-12T19:27:13.454Z,58.13
2023-05-12T19:29:40.721Z,58.83
2023-05-12T19:32:08.943Z,58.99
2023-05-12T19:34:36.720Z,61.00
2023-05-12T19:37:05.629Z,60.44
2023-05-12T19:39:33.202Z,60.94
2023-05-12T19:42:00.862Z,61.78
2023-05-12T19:44:29.939Z,61.82
2023-05-12T19:47:04.508Z,61.08
2023-05-12T19:49:35.986Z,61.42
2023-05-12T19:52:05.591Z,61.22
2023-05-12T19:54:33.099Z,62.00
2023-05-12T19:57:00.668Z,61.82
2023-05-12T19:59:28.112Z,61.13
2023-05-12T20:01:56.011Z,60.54
2023-05-12T20:04:23.935Z,61.39
2023-05-12T20:06:51.578Z,62.47
2023-05-12T20:09:20.802Z,61.59
2023-05-12T20:11:49.082Z,62.38
2023-05-12T20:14:16.484Z,60.22
2023-05-12T20:16:44.688Z,60.12
2023-05-12T20:19:12.163Z,61.82
2023-05-12T20:21:41.619Z,62.55
2023-05-12T20:24:09.571Z,62.17
2023-05-12T20:26:38.021Z,62.80
2023-05-12T20:29:05.379Z,63.73
2023-05-12T20:31:32.984Z,64.23
2023-05-12T20:34:00.295Z,64.15
2023-05-12T20:36:27.931Z,64.33
2023-05-12T20:38:55.206Z,64.35
2023-05-12T20:41:22.898Z,64.31
2023-05-12T20:43:50.095Z,64.59
2023-05-12T20:46:17.793Z,63.61
2023-05-12T20:48:45.146Z,63.85
2023-05-12T20:51:13.424Z,65.14
2023-05-12T20:53:40.741Z,64.37
2023-05-12T20:56:08.701Z,63.68
2023-05-12T20:58:36.652Z,64.90
2023-05-12T21:01:04.433Z,63.92
2023-05-12T21:03:33.851Z,64.35
2023-05-12T21:06:01.735Z,65.65
2023-05-12T21:08:28.953Z,65.88
2023-05-12T21:10:56.623Z,66.26
2023-05-12T21:13:23.894Z,66.41
2023-05-12T21:15:51.599Z,66.14
2023-05-12T21:18:18.772Z,66.53
2023-05-12T21:20:46.391Z,66.17
2023-05-12T21:23:13.846Z,66.62
2023-05-12T21:25:41.419Z,67.27
2023-05-12T21:28:08.644Z,67.61
2023-05-12T21:30:37.394Z,66.77
2023-05-12T21:33:05.600Z,67.66
2023-05-12T21:35:33.304Z,67.12
2023-05-12T21:38:00.762Z,67.28
2023-05-12T21:40:29.224Z,67.38
2023-05-12T21:42:56.447Z,67.68
2023-05-12T21:45:24.047Z,67.79
2023-05-12T21:47:51.472Z,67.26
2023-05-12T21:50:21.629Z,67.20
2023-05-12T21:52:49.829Z,67.92
2023-05-12T21:55:17.429Z,67.79
2023-05-12T21:57:44.650Z,66.96
2023-05-12T22:00:14.890Z,66.35
2023-05-12T22:02:42.266Z,67.09
2023-05-12T22:05:10.214Z,67.55
2023-05-12T22:07:37.412Z,68.10
2023-05-12T22:10:05.949Z,67.54
2023-05-12T22:12:33.262Z,67.93
2023-05-12T22:15:00.820Z,68.42
2023-05-12T22:17:28.133Z,68.85
2023-05-12T22:19:55.807Z,68.63
2023-05-12T22:22:23.228Z,67.98
2023-05-12T22:24:51.936Z,68.75
2023-05-12T22:27:22.214Z,68.53
2023-05-12T22:29:49.828Z,67.80
2023-05-12T22:32:17.052Z,68.60
2023-05-12T22:34:44.602Z,69.24
2023-05-12T22:37:11.811Z,67.53
2023-05-12T22:39:39.386Z,68.50
2023-05-12T22:42:06.882Z,68.99
2023-05-12T22:44:34.452Z,69.43
2023-05-12T22:47:01.805Z,69.21
2023-05-12T22:49:29.297Z,70.50
2023-05-12T22:51:56.615Z,70.71
2023-05-12T22:54:24.134Z,70.29
2023-05-12T22:56:51.344Z,71.51
2023-05-12T22:59:18.814Z,71.68
2023-05-12T23:01:46.378Z,71.15
2023-05-12T23:04:13.953Z,71.97
2023-05-12T23:06:41.395Z,71.89
2023-05-12T23:09:09.662Z,71.98
2023-05-12T23:11:37.010Z,72.69
2023-05-12T23:14:04.595Z,72.28
2023-05-12T23:16:31.978Z,73.32
2023-05-12T23:18:59.588Z,72.94
2023-05-12T23:21:26.793Z,72.12
2023-05-12T23:23:54.224Z,71.58
2023-05-12T23:26:21.448Z,72.58
2023-05-12T23:28:48.957Z,72.44
2023-05-12T23:31:16.296Z,72.58
2023-05-12T23:33:43.936Z,72.49
2023-05-12T23:36:11.326Z,73.22
2023-05-12T23:38:38.958Z,74.36
2023-05-12T23:41:06.247Z,74.65
2023-05-12T23:43:33.800Z,73.78
2023-05-12T23:46:01.507Z,73.37
2023-05-12T23:48:29.933Z,73.44
2023-05-12T23:50:57.298Z,72.73
2023-05-12T23:53:24.796Z,73.03
2023-05-12T23:55:51.981Z,72.71
2023-05-12T23:58:19.437Z,71.85
